createdAt,value
2023-05-14T00:02:21.717Z,13.70
2023-05-14T00:06:43.329Z,13.60
2023-05-14T00:11:22.382Z,13.60
2023-05-14T00:16:03.906Z,13.50
2023-05-14T00:20:42.264Z,13.50
2023-05-14T00:25:21.409Z,13.50
2023-05-14T00:30:00.643Z,13.50
2023-05-14T00:34:42.114Z,13.40
2023-05-14T00:39:20.060Z,13.40
2023-05-14T00:44:01.471Z,13.40
2023-05-14T00:48:39.328Z,13.30
2023-05-14T00:53:20.810Z,13.30
2023-05-14T00:58:01.629Z,13.30
2023-05-14T01:02:40.929Z,13.20
2023-05-14T01:07:31.421Z,13.20
2023-05-14T01:12:18.582Z,13.20
2023-05-14T01:17:01.466Z,13.10
2023-05-14T01:21:44.919Z,13.10
2023-05-14T01:26:23.553Z,13.00
2023-05-14T01:31:08.258Z,13.00
2023-05-14T01:35:47.224Z,12.90
2023-05-14T01:40:28.891Z,12.90
2023-05-14T01:45:10.544Z,12.90
2023-05-14T01:49:48.931Z,12.90
2023-05-14T01:54:28.369Z,12.90
2023-05-14T01:59:09.275Z,13.00
2023-05-14T02:03:47.598Z,13.00
2023-05-14T02:08:28.106Z,13.00
2023-05-14T02:13:06.657Z,13.00
2023-05-14T02:17:47.798Z,13.00
2023-05-14T02:22:25.805Z,13.00
2023-05-14T02:27:05.572Z,13.00
2023-05-14T02:31:44.927Z,12.90
2023-05-14T02:36:25.878Z,12.90
2023-05-14T02:41:04.119Z,12.90
2023-05-14T02:45:43.620Z,12.90
2023-05-14T02:50:23.433Z,12.90
2023-05-14T02:55:04.904Z,12.90
2023-05-14T02:59:42.688Z,12.90
2023-05-14T03:04:21.825Z,12.80
2023-05-14T03:09:01.470Z,12.80
2023-05-14T03:13:42.941Z,12.80
2023-05-14T03:18:20.434Z,12.80
2023-05-14T03:23:00.133Z,12.80
2023-05-14T03:27:39.671Z,12.70
2023-05-14T03:32:21.390Z,12.70
2023-05-14T03:36:59.165Z,12.70
2023-05-14T03:41:39.318Z,12.70
2023-05-14T03:46:17.858Z,12.80
2023-05-14T03:50:58.792Z,12.90
2023-05-14T03:55:37.097Z,12.90
2023-05-14T04:00:17.273Z,12.80
2023-05-14T04:04:56.366Z,12.80
2023-05-14T04:09:37.549Z,12.80
2023-05-14T04:14:15.821Z,12.80
2023-05-14T04:18:55.077Z,12.80
2023-05-14T04:23:34.466Z,12.80
2023-05-14T04:28:15.620Z,12.80
2023-05-14T04:32:53.616Z,12.80
2023-05-14T04:37:33.348Z,12.80
2023-05-14T04:42:12.541Z,12.90
2023-05-14T04:46:53.683Z,12.90
2023-05-14T04:51:31.727Z,13.00
2023-05-14T04:56:11.945Z,13.10
2023-05-14T05:00:50.940Z,13.30
2023-05-14T05:05:31.952Z,13.40
2023-05-14T05:10:10.814Z,13.60
2023-05-14T05:14:49.563Z,13.70
2023-05-14T05:19:39.522Z,13.90
2023-05-14T05:24:19.481Z,14.10
2023-05-14T05:28:57.375Z,14.30
2023-05-14T05:33:37.226Z,14.50
2023-05-14T05:38:18.359Z,14.70
2023-05-14T05:42:57.538Z,14.80
2023-05-14T05:47:35.753Z,15.00
2023-05-14T05:52:15.362Z,15.40
2023-05-14T05:56:54.784Z,15.80
2023-05-14T06:01:35.775Z,16.10
2023-05-14T06:06:13.857Z,16.50
2023-05-14T06:10:53.400Z,17.30
2023-05-14T06:15:33.630Z,18.10
2023-05-14T06:20:15.238Z,19.00
2023-05-14T06:24:55.191Z,20.10
2023-05-14T06:29:35.258Z,21.20
2023-05-14T06:34:14.349Z,22.40
2023-05-14T06:38:55.185Z,23.40
2023-05-14T06:43:33.495Z,24.10
2023-05-14T06:48:13.357Z,24.80
2023-05-14T06:52:52.670Z,25.60
2023-05-14T06:57:34.178Z,26.30
2023-05-14T07:02:12.235Z,27.00
2023-05-14T07:06:51.149Z,27.80
2023-05-14T07:11:30.916Z,28.50
2023-05-14T07:16:11.908Z,29.10
2023-05-14T07:20:50.071Z,29.40
2023-05-14T07:25:32.727Z,29.80
2023-05-14T07:30:12.772Z,30.40
2023-05-14T07:34:53.869Z,30.90
2023-05-14T07:39:31.759Z,31.10
2023-05-14T07:44:10.881Z,31.20
2023-05-14T07:48:50.414Z,31.70
2023-05-14T07:53:31.623Z,32.20
2023-05-14T07:58:09.471Z,32.50
2023-05-14T08:02:50.483Z,32.50
2023-05-14T08:07:30.197Z,32.30
2023-05-14T08:12:10.118Z,32.20
2023-05-14T08:16:47.942Z,32.00
2023-05-14T08:21:28.193Z,31.90
2023-05-14T08:26:07.315Z,31.80
2023-05-14T08:30:47.735Z,31.60
2023-05-14T08:35:26.024Z,31.60
2023-05-14T08:40:08.152Z,31.80
2023-05-14T08:44:50.306Z,31.90
2023-05-14T08:49:40.330Z,31.40
2023-05-14T08:54:22.580Z,30.60
2023-05-14T08:59:02.428Z,29.90
2023-05-14T09:03:42.321Z,29.60
2023-05-14T09:08:23.170Z,29.90
2023-05-14T09:13:00.937Z,29.90
2023-05-14T09:17:40.454Z,29.90
2023-05-14T09:22:20.719Z,30.10
2023-05-14T09:27:03.769Z,29.90
2023-05-14T09:31:42.271Z,28.80
2023-05-14T09:36:21.772Z,27.50
2023-05-14T09:41:01.928Z,26.60
2023-05-14T09:45:42.515Z,26.00
2023-05-14T09:50:20.587Z,25.60
2023-05-14T09:55:00.889Z,25.00
2023-05-14T09:59:39.614Z,24.10
2023-05-14T10:04:21.881Z,23.30
2023-05-14T10:09:05.723Z,22.80
2023-05-14T10:13:51.452Z,22.60
2023-05-14T10:18:35.637Z,23.30
2023-05-14T10:23:17.394Z,24.60
2023-05-14T10:27:56.002Z,25.70
2023-05-14T10:32:37.868Z,26.50
2023-05-14T10:37:19.394Z,26.90
2023-05-14T10:41:58.505Z,27.30
2023-05-14T10:46:36.691Z,27.10
2023-05-14T10:51:20.646Z,26.30
2023-05-14T10:55:59.036Z,25.50
2023-05-14T11:00:40.604Z,24.80
2023-05-14T11:05:18.344Z,24.60
2023-05-14T11:10:06.098Z,24.60
2023-05-14T11:14:43.710Z,24.40
2023-05-14T11:19:24.259Z,24.10
2023-05-14T11:24:03.815Z,23.80
2023-05-14T11:28:42.257Z,23.20
2023-05-14T11:33:22.304Z,22.70
2023-05-14T11:38:02.702Z,22.30
2023-05-14T11:42:40.948Z,21.80
2023-05-14T11:47:22.211Z,21.20
2023-05-14T11:52:00.225Z,20.60
2023-05-14T11:56:40.847Z,20.10
2023-05-14T12:01:19.072Z,19.80
2023-05-14T12:06:00.050Z,19.50
2023-05-14T12:10:43.360Z,19.30
2023-05-14T12:15:23.655Z,19.10
2023-05-14T12:20:04.200Z,18.80
2023-05-14T12:24:44.251Z,18.70
2023-05-14T12:29:23.004Z,18.60
2023-05-14T12:34:05.286Z,18.60
2023-05-14T12:38:45.241Z,18.60
2023-05-14T12:43:24.189Z,18.60
2023-05-14T12:48:03.900Z,18.70
2023-05-14T12:52:44.733Z,18.70
2023-05-14T12:57:22.816Z,18.80
2023-05-14T13:02:02.353Z,18.80
2023-05-14T13:06:42.286Z,18.80
2023-05-14T13:11:22.883Z,18.70
2023-05-14T13:16:01.160Z,18.80
2023-05-14T13:20:42.977Z,18.70
2023-05-14T13:25:23.486Z,18.80
2023-05-14T13:30:04.774Z,18.80
2023-05-14T13:34:44.061Z,18.80
2023-05-14T13:39:22.790Z,18.90
2023-05-14T13:44:01.568Z,19.20
2023-05-14T13:48:42.701Z,19.40
2023-05-14T13:53:21.178Z,19.60
2023-05-14T13:58:00.371Z,19.90
2023-05-14T14:02:39.827Z,20.10
2023-05-14T14:07:21.363Z,20.20
2023-05-14T14:11:59.180Z,20.30
2023-05-14T14:16:38.499Z,20.40
2023-05-14T14:21:18.541Z,20.50
2023-05-14T14:25:59.694Z,20.50
2023-05-14T14:30:37.336Z,20.50
2023-05-14T14:35:18.358Z,20.70
2023-05-14T14:39:56.339Z,20.80
2023-05-14T14:44:37.761Z,20.90
2023-05-14T14:49:15.385Z,20.80
2023-05-14T14:53:54.826Z,20.70
2023-05-14T14:58:34.531Z,20.70
2023-05-14T15:03:16.380Z,20.60
2023-05-14T15:07:56.540Z,20.50
2023-05-14T15:12:36.198Z,20.30
2023-05-14T15:17:15.879Z,20.20
2023-05-14T15:21:56.847Z,20.00
2023-05-14T15:26:34.893Z,20.00
2023-05-14T15:31:14.493Z,20.00
2023-05-14T15:35:54.188Z,19.90
2023-05-14T15:40:35.287Z,19.90
2023-05-14T15:45:14.945Z,19.80
2023-05-14T15:49:52.729Z,19.80
2023-05-14T15:54:32.318Z,19.80
2023-05-14T15:59:14.633Z,19.80
2023-05-14T16:03:54.487Z,19.80
2023-05-14T16:08:34.267Z,19.80
2023-05-14T16:13:13.684Z,19.90
2023-05-14T16:17:54.647Z,20.00
2023-05-14T16:22:34.754Z,20.00
2023-05-14T16:27:14.713Z,20.00
2023-05-14T16:31:55.127Z,20.00
2023-05-14T16:36:15.105Z,20.00
2023-05-14T16:40:37.348Z,19.90
2023-05-14T16:44:55.609Z,19.80
2023-05-14T16:49:14.166Z,19.70
2023-05-14T16:53:33.142Z,19.50
2023-05-14T16:57:52.983Z,19.40
2023-05-14T17:02:12.140Z,19.30
2023-05-14T17:06:32.121Z,19.10
2023-05-14T17:10:51.748Z,19.00
2023-05-14T17:15:12.027Z,18.90
2023-05-14T17:19:29.151Z,18.80
2023-05-14T17:23:47.182Z,18.80
2023-05-14T17:28:06.718Z,18.80
2023-05-14T17:32:26.418Z,18.80
2023-05-14T17:36:44.457Z,18.80
2023-05-14T17:41:02.412Z,18.80
2023-05-14T17:45:22.220Z,18.70
2023-05-14T17:49:41.738Z,18.50
2023-05-14T17:54:02.129Z,18.30
2023-05-14T17:58:20.859Z,18.20
2023-05-14T18:02:40.637Z,18.10
2023-05-14T18:07:01.435Z,17.90
2023-05-14T18:11:21.409Z,17.70
2023-05-14T18:15:39.360Z,17.60
2023-05-14T18:20:00.179Z,17.50
2023-05-14T18:24:18.609Z,17.40
2023-05-14T18:28:37.499Z,17.30
2023-05-14T18:32:54.572Z,17.20
2023-05-14T18:37:14.028Z,17.20
2023-05-14T18:41:33.746Z,17.10
2023-05-14T18:45:51.870Z,17.00
2023-05-14T18:50:10.398Z,17.00
2023-05-14T18:54:29.179Z,16.90
2023-05-14T18:58:49.360Z,16.80
2023-05-14T19:03:07.144Z,16.70
2023-05-14T19:07:25.225Z,16.60
2023-05-14T19:11:44.566Z,16.50
2023-05-14T19:16:04.533Z,16.40
2023-05-14T19:20:22.547Z,16.40
2023-05-14T19:24:40.640Z,16.30
2023-05-14T19:29:00.168Z,16.30
2023-05-14T19:33:19.668Z,16.20
2023-05-14T19:37:37.588Z,16.20
2023-05-14T19:41:55.629Z,16.10
2023-05-14T19:46:15.362Z,16.10
2023-05-14T19:50:36.856Z,16.10
2023-05-14T19:54:55.910Z,16.00
2023-05-14T19:59:14.046Z,16.00
2023-05-14T20:03:34.881Z,15.90
2023-05-14T20:07:54.214Z,15.80
2023-05-14T20:12:12.914Z,15.70
2023-05-14T20:16:33.024Z,15.70
2023-05-14T20:20:51.976Z,15.60
2023-05-14T20:25:11.551Z,15.50
2023-05-14T20:29:29.803Z,15.50
2023-05-14T20:33:47.923Z,15.40
2023-05-14T20:38:07.102Z,15.30
2023-05-14T20:42:27.302Z,15.20
2023-05-14T20:46:44.996Z,15.00
2023-05-14T20:51:04.924Z,14.90
2023-05-14T20:55:25.810Z,14.80
2023-05-14T20:59:45.351Z,14.70
2023-05-14T21:04:03.660Z,14.60
2023-05-14T21:08:21.408Z,14.40
2023-05-14T21:12:42.651Z,14.40
2023-05-14T21:17:00.442Z,14.30
2023-05-14T21:21:18.562Z,14.20
2023-05-14T21:25:36.619Z,14.20
2023-05-14T21:29:56.236Z,14.10
2023-05-14T21:34:15.885Z,14.00
2023-05-14T21:38:33.931Z,14.00
2023-05-14T21:42:51.965Z,14.00
2023-05-14T21:47:11.518Z,14.00
2023-05-14T21:51:32.166Z,13.90
2023-05-14T21:55:49.855Z,13.90
2023-05-14T22:00:13.016Z,13.90
2023-05-14T22:04:36.162Z,13.80
2023-05-14T22:08:55.635Z,13.80
2023-05-14T22:13:13.656Z,13.70
2023-05-14T22:17:31.797Z,13.70
2023-05-14T22:21:51.182Z,13.60
2023-05-14T22:26:11.001Z,13.60
2023-05-14T22:30:29.085Z,13.60
2023-05-14T22:34:47.014Z,13.50
2023-05-14T22:39:06.580Z,13.50
2023-05-14T22:43:26.378Z,13.50
2023-05-14T22:47:44.203Z,13.50
2023-05-14T22:52:02.342Z,13.50
2023-05-14T22:56:22.198Z,13.50
2023-05-14T23:00:41.409Z,13.40
2023-05-14T23:04:59.593Z,13.40
2023-05-14T23:09:17.582Z,13.30
2023-05-14T23:13:37.025Z,13.20
2023-05-14T23:17:56.993Z,13.10
2023-05-14T23:22:14.759Z,13.00
2023-05-14T23:26:32.810Z,12.90
2023-05-14T23:30:52.394Z,12.80
2023-05-14T23:35:12.122Z,12.70
2023-05-14T23:39:30.203Z,12.50
2023-05-14T23:43:48.918Z,12.40
2023-05-14T23:48:07.881Z,12.40
2023-05-14T23:52:27.434Z,12.30
2023-05-14T23:56:45.663Z,12.20
